Time;durP1;ratioP1;P1;durP2;ratioP2;P2;SDS_P1;SDS_P2;PMS_P1;PMS_P2;Temp;Humidity;BMP_temperature;BMP_pressure;BME280_temperature;BME280_humidity;BME280_pressure;Samples;Min_cycle;Max_cycle;Signal;HPM_P1;HPM_P2
2021/07/17 00:02:01;;;;;;;8.85;7.22;;;;;;;23.40;71.69;100634.03;4946226;28;102222;-49
2021/07/17 00:04:28;;;;;;;9.10;7.35;;;;;;;23.41;71.71;100634.88;4937277;28;104067;-50
2021/07/17 00:06:55;;;;;;;11.38;6.88;;;;;;;23.41;71.83;100634.88;4943698;28;102637;-50
2021/07/17 00:09:21;;;;;;;8.98;7.15;;;;;;;23.41;71.92;100629.31;4937459;28;103844;-49
2021/07/17 00:11:49;;;;;;;10.88;7.65;;;;;;;23.41;71.65;100635.69;4941375;28;102437;-49
2021/07/17 00:14:15;;;;;;;9.00;7.07;;;;;;;23.40;71.62;100642.38;4938575;28;102418;-50
2021/07/17 00:17:03;;;;;;;10.32;6.85;;;;;;;23.41;71.87;100637.66;4935009;28;102145;-49
2021/07/17 00:19:30;;;;;;;8.45;6.70;;;;;;;23.40;71.56;100633.25;4945224;28;103830;-49
2021/07/17 00:21:57;;;;;;;10.90;6.63;;;;;;;23.40;71.76;100633.25;4948478;28;102342;-49
2021/07/17 00:24:23;;;;;;;11.75;7.25;;;;;;;23.40;71.79;100630.47;4942911;28;102214;-50
2021/07/17 00:26:50;;;;;;;8.75;6.85;;;;;;;23.40;71.47;100630.47;4945031;28;102219;-49
2021/07/17 00:29:17;;;;;;;8.95;6.57;;;;;;;23.40;71.50;100633.25;4942143;28;103882;-49
2021/07/17 00:31:43;;;;;;;10.13;7.00;;;;;;;23.40;71.66;100630.47;4944466;28;101954;-49
2021/07/17 00:34:11;;;;;;;9.50;6.60;;;;;;;23.39;71.39;100628.88;4953563;28;102254;-49
2021/07/17 00:36:37;;;;;;;9.77;6.87;;;;;;;23.40;71.48;100630.47;4951286;28;102264;-49
2021/07/17 00:39:04;;;;;;;9.32;6.68;;;;;;;23.38;71.43;100622.50;4945682;28;103201;-50
2021/07/17 00:41:30;;;;;;;8.60;6.85;;;;;;;23.39;71.72;100623.31;4940734;28;102191;-49
2021/07/17 00:43:57;;;;;;;8.05;6.63;;;;;;;23.39;71.47;100628.88;4944512;28;102821;-49
2021/07/17 00:46:25;;;;;;;7.57;6.40;;;;;;;23.39;71.64;100620.53;4946046;28;102565;-49
2021/07/17 00:48:52;;;;;;;11.25;6.47;;;;;;;23.39;71.48;100632.44;4947049;28;103923;-49
2021/07/17 00:51:23;;;;;;;7.60;6.35;;;;;;;23.39;71.43;100628.88;4946172;28;102780;-49
2021/07/17 00:53:49;;;;;;;8.63;6.50;;;;;;;23.37;71.13;100625.63;4937096;28;102462;-49
2021/07/17 00:56:16;;;;;;;10.23;6.20;;;;;;;23.37;71.30;100620.91;4945442;28;102582;-49
2021/07/17 00:58:46;;;;;;;9.52;6.70;;;;;;;23.38;71.60;100616.16;4944341;28;103968;-49
2021/07/17 01:01:14;;;;;;;10.23;6.57;;;;;;;23.36;71.27;100624.81;4930276;28;102702;-49
2021/07/17 01:03:42;;;;;;;8.10;6.15;;;;;;;23.37;71.31;100623.69;4945413;28;102890;-50
2021/07/17 01:06:08;;;;;;;9.13;6.15;;;;;;;23.36;71.39;100619.28;4944048;28;102213;-49
2021/07/17 01:08:36;;;;;;;7.93;6.28;;;;;;;23.38;71.46;100621.69;4943316;28;103996;-49
2021/07/17 01:11:04;;;;;;;9.20;6.50;;;;;;;23.37;71.46;100620.91;4945345;28;102312;-49
2021/07/17 01:13:32;;;;;;;8.80;6.15;;;;;;;23.36;71.47;100622.03;4946059;28;102012;-49
2021/07/17 01:15:59;;;;;;;7.95;6.15;;;;;;;23.36;71.33;100615.69;4949162;28;102245;-49
2021/07/17 01:18:25;;;;;;;8.00;6.50;;;;;;;23.37;71.63;100622.84;4946652;28;104131;-49
2021/07/17 01:20:56;;;;;;;8.65;5.90;;;;;;;23.37;71.45;100620.06;4950712;28;102579;-49
2021/07/17 01:23:24;;;;;;;9.40;5.68;;;;;;;23.36;71.62;100619.28;4942107;28;102674;-49
2021/07/17 01:25:51;;;;;;;9.80;6.50;;;;;;;23.35;71.29;100623.22;4947249;28;102333;-49
2021/07/17 01:28:18;;;;;;;10.30;6.07;;;;;;;23.37;71.30;100611.75;4947125;28;104005;-49
2021/07/17 01:30:45;;;;;;;8.55;6.40;;;;;;;23.36;71.30;100601.81;4950192;28;102406;-49
2021/07/17 01:33:11;;;;;;;7.82;6.22;;;;;;;23.35;71.44;100611.31;4948859;28;102719;-49
2021/07/17 01:35:38;;;;;;;10.73;6.35;;;;;;;23.34;71.25;100610.50;4950549;28;102434;-50
2021/07/17 01:38:05;;;;;;;8.23;6.20;;;;;;;23.35;71.34;100611.31;4947678;28;103097;-50
2021/07/17 01:40:34;;;;;;;7.70;5.78;;;;;;;23.34;71.35;100598.59;4952956;28;104670;-49
2021/07/17 01:43:02;;;;;;;7.85;5.68;;;;;;;23.35;71.48;100605.75;4955242;28;102445;-49
2021/07/17 01:45:31;;;;;;;9.27;6.28;;;;;;;23.35;71.48;100597.44;4948385;28;102579;-49
2021/07/17 01:47:57;;;;;;;11.35;6.20;;;;;;;23.35;71.42;100594.66;4950383;28;103914;-49
2021/07/17 01:50:26;;;;;;;7.25;6.13;;;;;;;23.35;71.25;100611.31;4940041;28;102736;-49
2021/07/17 01:52:52;;;;;;;7.82;6.05;;;;;;;23.35;71.06;100600.22;4941962;28;103055;-49
2021/07/17 01:55:19;;;;;;;7.53;5.65;;;;;;;23.35;71.27;100612.13;4949454;28;102234;-49
2021/07/17 01:57:49;;;;;;;8.60;6.03;;;;;;;23.34;71.30;100616.06;4947357;28;103998;-49
2021/07/17 02:00:18;;;;;;;6.55;5.60;;;;;;;23.34;71.34;100607.72;4939591;28;102565;-49
2021/07/17 02:02:45;;;;;;;;;;;;;;;23.33;71.19;100599.75;4954535;28;102250;-50
2021/07/17 02:05:13;;;;;;;8.10;6.10;;;;;;;23.33;71.17;100603.31;4947955;28;102150;-49
2021/07/17 02:07:39;;;;;;;10.13;5.80;;;;;;;23.33;71.23;100597.78;4946874;28;104065;-49
2021/07/17 02:10:09;;;;;;;9.88;5.65;;;;;;;23.34;71.26;100598.59;4946942;28;102648;-49
2021/07/17 02:12:37;;;;;;;10.32;5.63;;;;;;;23.33;71.17;100596.97;4934320;28;102504;-49
2021/07/17 02:15:07;;;;;;;9.18;5.63;;;;;;;23.34;71.26;100606.94;4944487;28;102775;-49
2021/07/17 02:17:34;;;;;;;8.35;5.80;;;;;;;23.34;71.34;100610.50;4946440;28;102764;-49
2021/07/17 02:20:01;;;;;;;7.25;5.80;;;;;;;23.33;71.19;100610.84;4941284;28;103481;-49
2021/07/17 02:22:27;;;;;;;8.38;5.88;;;;;;;23.33;71.06;100608.06;4961660;28;102526;-49
2021/07/17 02:24:54;;;;;;;6.60;5.47;;;;;;;23.33;71.13;100611.66;4955619;28;102544;-49
2021/07/17 02:27:21;;;;;;;9.07;5.70;;;;;;;23.33;71.17;100608.06;4952160;28;103938;-49
2021/07/17 02:29:47;;;;;;;6.93;5.53;;;;;;;23.33;71.18;100610.84;4945266;28;102151;-49
2021/07/17 02:32:15;;;;;;;8.45;5.43;;;;;;;23.33;71.08;100614.44;4928389;28;102323;-49
2021/07/17 02:34:42;;;;;;;7.63;5.60;;;;;;;23.32;70.99;100614.81;4939417;28;102776;-49
2021/07/17 02:37:08;;;;;;;6.93;5.65;;;;;;;23.32;70.94;100612.03;4953170;28;104756;-49
2021/07/17 02:39:35;;;;;;;9.93;5.80;;;;;;;23.32;71.00;100612.03;4945116;28;103314;-53
2021/07/17 02:42:03;;;;;;;6.63;5.43;;;;;;;23.32;70.98;100615.59;4945337;28;102135;-49
2021/07/17 02:44:31;;;;;;;6.47;4.80;;;;;;;23.31;70.97;100614.00;4956048;28;102125;-49
2021/07/17 02:46:58;;;;;;;7.60;5.63;;;;;;;23.32;71.13;100612.03;4948361;28;104048;-49
2021/07/17 02:49:26;;;;;;;5.60;5.03;;;;;;;23.32;71.14;100606.47;4948208;28;102504;-50
2021/07/17 02:51:55;;;;;;;5.75;4.88;;;;;;;23.32;70.94;100609.25;4951484;28;101977;-49
2021/07/17 02:54:21;;;;;;;7.03;5.60;;;;;;;23.31;71.16;100608.44;4944629;28;102640;-49
2021/07/17 02:56:49;;;;;;;6.55;4.70;;;;;;;23.32;71.06;100612.03;4928352;28;103655;-49
2021/07/17 02:59:15;;;;;;;7.35;5.20;;;;;;;23.32;71.07;100612.03;4950877;28;102711;-49
2021/07/17 03:01:42;;;;;;;6.50;4.88;;;;;;;23.32;71.23;100606.47;4949309;28;102404;-49
2021/07/17 03:04:09;;;;;;;5.95;4.88;;;;;;;23.32;71.04;100609.25;4934988;28;102218;-49
2021/07/17 03:06:37;;;;;;;6.70;4.80;;;;;;;23.32;70.97;100612.03;4948310;28;103911;-50
2021/07/17 03:09:04;;;;;;;6.82;5.25;;;;;;;23.32;71.15;100612.84;4945211;28;102271;-49
2021/07/17 03:11:32;;;;;;;6.88;4.93;;;;;;;23.32;71.23;100612.84;4953043;28;102576;-49
2021/07/17 03:13:59;;;;;;;8.20;5.18;;;;;;;23.32;71.01;100617.59;4949495;28;102525;-49
2021/07/17 03:16:26;;;;;;;6.57;5.43;;;;;;;23.32;70.97;100617.59;4946789;28;103320;-49
2021/07/17 03:18:53;;;;;;;7.43;5.32;;;;;;;23.32;70.97;100614.81;4944562;28;102687;-49
2021/07/17 03:21:19;;;;;;;9.13;5.65;;;;;;;23.33;71.19;100608.06;4951612;28;102456;-49
2021/07/17 03:23:47;;;;;;;7.22;4.88;;;;;;;23.33;71.14;100616.41;4946301;28;102286;-49
2021/07/17 03:26:15;;;;;;;7.68;5.32;;;;;;;23.33;71.13;100610.84;4945154;28;103926;-50
2021/07/17 03:28:42;;;;;;;7.53;6.27;;;;;;;23.34;71.33;100609.72;4940168;28;102699;-49
2021/07/17 03:31:09;;;;;;;7.90;5.35;;;;;;;23.34;71.15;100606.94;4944642;28;102287;-49
2021/07/17 03:33:36;;;;;;;7.03;5.30;;;;;;;23.33;71.24;100606.09;4945149;28;102652;-49
2021/07/17 03:36:04;;;;;;;6.85;5.18;;;;;;;23.33;71.42;100608.06;4944225;28;103910;-50
2021/07/17 03:38:31;;;;;;;6.18;4.93;;;;;;;23.34;71.42;100606.94;4946697;28;102404;-50
2021/07/17 03:40:59;;;;;;;5.95;4.75;;;;;;;23.34;71.54;100610.50;4933926;28;102691;-50
2021/07/17 03:43:25;;;;;;;6.13;5.20;;;;;;;23.34;71.72;100598.59;4957231;28;102782;-50
2021/07/17 03:45:52;;;;;;;5.47;4.82;;;;;;;23.35;71.35;100608.53;4952429;28;104025;-51
2021/07/17 03:48:19;;;;;;;6.50;5.00;;;;;;;23.35;71.70;100601.00;4953101;28;102338;-49
2021/07/17 03:50:45;;;;;;;5.55;4.90;;;;;;;23.36;71.60;100599.03;4943618;28;102235;-50
2021/07/17 03:53:12;;;;;;;8.80;5.13;;;;;;;23.36;71.50;100596.25;4951263;28;102562;-50
2021/07/17 03:55:38;;;;;;;5.80;5.10;;;;;;;23.36;71.58;100601.81;4946790;28;104094;-49
2021/07/17 03:58:07;;;;;;;7.22;4.90;;;;;;;23.36;71.67;100601.81;4928991;28;102473;-50
2021/07/17 04:00:33;;;;;;;7.07;4.75;;;;;;;23.37;71.78;100597.84;4945709;28;102553;-49
2021/07/17 04:03:03;;;;;;;6.95;4.60;;;;;;;23.36;71.67;100599.84;4951236;28;102021;-49
2021/07/17 04:05:30;;;;;;;5.90;5.25;;;;;;;23.37;71.37;100598.69;4946750;28;103701;-50
2021/07/17 04:07:57;;;;;;;7.22;4.97;;;;;;;23.37;71.68;100604.25;4933182;28;102190;-49
2021/07/17 04:10:23;;;;;;;6.10;4.88;;;;;;;23.38;71.75;100605.03;4948967;28;103362;-49
2021/07/17 04:12:50;;;;;;;6.15;5.10;;;;;;;23.37;71.92;100598.69;4932533;28;102669;-49
2021/07/17 04:15:18;;;;;;;7.22;5.43;;;;;;;23.38;71.96;100593.94;4947548;28;103336;-49
2021/07/17 04:17:45;;;;;;;7.63;5.00;;;;;;;23.38;71.92;100596.72;4927118;28;102624;-49
2021/07/17 04:20:12;;;;;;;6.80;5.32;;;;;;;23.38;71.93;100594.75;4939360;28;102737;-49
2021/07/17 04:22:39;;;;;;;9.73;4.97;;;;;;;23.38;71.94;100589.19;4943155;28;102383;-51
2021/07/17 04:25:06;;;;;;;5.90;5.15;;;;;;;23.40;71.91;100597.13;4944914;28;104610;-49
2021/07/17 04:27:34;;;;;;;6.00;5.40;;;;;;;23.39;71.88;100601.09;4940353;28;102590;-49
2021/07/17 04:30:01;;;;;;;5.35;4.85;;;;;;;23.38;71.86;100597.50;4941706;28;103859;-49
2021/07/17 04:32:28;;;;;;;6.20;4.95;;;;;;;23.39;71.79;100595.53;4935570;28;102641;-49
2021/07/17 04:34:55;;;;;;;7.73;5.80;;;;;;;23.39;71.93;100589.97;4951242;28;103960;-49
2021/07/17 04:37:22;;;;;;;5.72;5.13;;;;;;;23.39;71.86;100589.97;4939791;28;102795;-49
2021/07/17 04:39:48;;;;;;;7.95;5.20;;;;;;;23.39;71.95;100596.34;4945030;28;102283;-49
2021/07/17 04:42:16;;;;;;;5.43;4.93;;;;;;;23.40;71.92;100589.59;4949596;28;102214;-49
2021/07/17 04:44:44;;;;;;;11.30;4.90;;;;;;;23.41;71.81;100598.78;4941872;28;102838;-49
2021/07/17 04:47:11;;;;;;;5.88;5.22;;;;;;;23.41;71.85;100587.66;4940991;28;102383;-49
2021/07/17 04:49:39;;;;;;;5.15;4.65;;;;;;;23.42;71.73;100600.38;4942324;28;102594;-49
2021/07/17 04:52:06;;;;;;;6.20;5.30;;;;;;;23.41;71.91;100593.22;4939381;28;106244;-49
2021/07/17 04:54:33;;;;;;;5.53;4.78;;;;;;;23.42;72.01;100600.38;4946195;28;104007;-49
2021/07/17 04:56:59;;;;;;;5.78;5.03;;;;;;;23.43;71.69;100596.41;4946552;28;102613;-49
2021/07/17 04:59:26;;;;;;;5.72;5.00;;;;;;;23.43;72.07;100590.88;4945239;28;103209;-49
2021/07/17 05:01:52;;;;;;;6.25;5.20;;;;;;;23.43;71.97;100591.66;4951460;28;102337;-49
2021/07/17 05:04:19;;;;;;;6.18;4.93;;;;;;;23.44;71.84;100593.31;4947846;28;104011;-49
2021/07/17 05:06:46;;;;;;;6.30;5.30;;;;;;;23.45;71.75;100599.66;4949172;28;102190;-53
2021/07/17 05:09:13;;;;;;;8.38;5.50;;;;;;;23.46;71.98;100601.25;4950204;28;102621;-49
2021/07/17 05:11:39;;;;;;;8.07;5.68;;;;;;;23.45;71.95;100599.66;4952699;28;103112;-49
2021/07/17 05:14:07;;;;;;;5.85;5.25;;;;;;;23.46;72.03;100606.81;4948465;28;103569;-49
2021/07/17 05:16:33;;;;;;;6.10;5.50;;;;;;;23.47;71.73;100608.41;4950922;28;102430;-50
2021/07/17 05:19:01;;;;;;;7.20;5.05;;;;;;;23.48;71.92;100596.16;4955706;28;102547;-49
2021/07/17 05:21:28;;;;;;;7.28;5.28;;;;;;;23.49;72.06;100606.09;4950374;28;103174;-49
2021/07/17 05:23:55;;;;;;;6.22;5.63;;;;;;;23.49;72.08;100606.91;4947146;28;103299;-49
2021/07/17 05:26:22;;;;;;;6.03;5.43;;;;;;;23.51;71.96;100606.53;4944879;28;102495;-50
2021/07/17 05:28:49;;;;;;;7.00;5.60;;;;;;;23.52;71.90;100605.38;4936612;28;102366;-49
2021/07/17 05:31:18;;;;;;;5.97;5.20;;;;;;;23.55;71.78;100609.38;4938923;28;102579;-49
2021/07/17 05:33:44;;;;;;;6.38;5.32;;;;;;;23.54;72.03;100602.22;4945548;28;103806;-49
2021/07/17 05:36:11;;;;;;;7.10;5.60;;;;;;;23.56;71.78;100606.25;4947117;28;102254;-49
2021/07/17 05:38:38;;;;;;;7.57;5.40;;;;;;;23.56;71.65;100606.25;4945535;28;103366;-49
2021/07/17 05:41:06;;;;;;;6.00;5.50;;;;;;;23.59;72.05;100601.97;4945361;28;102271;-50
2021/07/17 05:43:33;;;;;;;5.78;5.15;;;;;;;23.61;71.83;100602.38;4945436;28;103873;-49
2021/07/17 05:45:59;;;;;;;6.03;5.43;;;;;;;23.62;71.88;100603.97;4943627;28;103720;-50
2021/07/17 05:48:26;;;;;;;6.85;5.68;;;;;;;23.63;71.98;100605.63;4936420;28;102161;-49
2021/07/17 05:50:52;;;;;;;7.07;6.00;;;;;;;23.63;71.79;100606.41;4948405;28;102230;-49
2021/07/17 05:53:21;;;;;;;8.15;6.78;;;;;;;23.65;71.84;100609.63;4947792;28;104523;-49
2021/07/17 05:55:48;;;;;;;6.40;5.80;;;;;;;23.66;71.83;100614.03;4946697;28;102357;-49
2021/07/17 05:58:16;;;;;;;7.18;6.45;;;;;;;23.67;71.76;100607.34;4947081;28;102593;-49
2021/07/17 06:00:44;;;;;;;9.20;6.15;;;;;;;23.69;71.79;100610.56;4931809;28;102495;-50
2021/07/17 06:03:11;;;;;;;6.60;5.90;;;;;;;23.70;71.59;100608.59;4945540;28;104056;-49
2021/07/17 06:05:37;;;;;;;7.35;6.40;;;;;;;23.70;71.56;100601.06;4947798;28;102309;-49
2021/07/17 06:08:04;;;;;;;8.02;6.25;;;;;;;23.72;71.52;100609.00;4949645;28;102260;-50
2021/07/17 06:10:31;;;;;;;6.53;5.85;;;;;;;23.76;71.68;100614.66;4949311;28;102357;-49
2021/07/17 06:12:58;;;;;;;7.22;6.53;;;;;;;23.79;71.57;100608.38;4947598;28;103878;-50
2021/07/17 06:15:27;;;;;;;7.38;6.65;;;;;;;23.81;71.85;100603.25;4942562;28;103993;-49
2021/07/17 06:17:53;;;;;;;8.00;6.18;;;;;;;23.81;71.55;100606.84;4948120;28;102307;-49
2021/07/17 06:20:21;;;;;;;8.23;7.30;;;;;;;23.83;71.34;100614.81;4951949;28;102987;-49
2021/07/17 06:22:48;;;;;;;8.00;6.57;;;;;;;23.84;71.52;100599.72;4946020;28;104004;-49
2021/07/17 06:25:15;;;;;;;7.55;6.85;;;;;;;23.85;71.38;100604.16;4947981;28;102546;-50
2021/07/17 06:27:42;;;;;;;9.13;7.28;;;;;;;23.85;71.56;100602.16;4947066;28;102468;-49
2021/07/17 06:30:09;;;;;;;7.88;6.95;;;;;;;23.87;71.66;100604.56;4941022;28;102579;-50
2021/07/17 06:32:38;;;;;;;7.30;6.60;;;;;;;23.90;71.58;100609.41;4946820;28;103375;-49
2021/07/17 06:35:06;;;;;;;8.57;7.40;;;;;;;23.92;71.23;100607.06;4949539;28;102712;-50
2021/07/17 06:37:32;;;;;;;8.97;7.67;;;;;;;23.93;71.40;100614.25;4941314;28;102328;-50
2021/07/17 06:39:59;;;;;;;8.52;7.70;;;;;;;23.97;71.44;100606.78;4935342;28;102540;-50
2021/07/17 06:42:26;;;;;;;8.73;7.78;;;;;;;23.97;71.55;100604.00;4943471;28;102993;-50
2021/07/17 06:44:53;;;;;;;9.85;7.72;;;;;;;23.97;71.75;100610.34;4946111;28;102555;-49
2021/07/17 06:47:19;;;;;;;9.23;8.18;;;;;;;24.00;71.47;100608.81;4946371;28;102396;-50
2021/07/17 06:49:48;;;;;;;10.85;8.68;;;;;;;24.02;71.43;100611.22;4947529;28;102814;-49
2021/07/17 06:52:15;;;;;;;10.13;9.13;;;;;;;24.03;71.60;100602.53;4941153;28;102394;-50
2021/07/17 06:54:41;;;;;;;11.32;9.88;;;;;;;24.07;71.50;100608.97;4947742;28;102191;-49
2021/07/17 06:57:08;;;;;;;14.43;9.55;;;;;;;24.08;71.53;100610.56;4951464;28;102741;-50
2021/07/17 06:59:34;;;;;;;11.20;10.10;;;;;;;24.09;71.36;100612.22;4946875;28;102440;-50
2021/07/17 07:02:01;;;;;;;18.02;11.05;;;;;;;24.10;71.36;100608.25;4946017;28;103956;-50
2021/07/17 07:04:28;;;;;;;12.73;10.10;;;;;;;24.11;71.56;100615.41;4946698;28;102565;-49
2021/07/17 07:06:57;;;;;;;11.35;10.27;;;;;;;24.13;71.43;100609.50;4948755;28;102286;-50
2021/07/17 07:09:23;;;;;;;11.20;10.03;;;;;;;24.13;71.45;100601.97;4946458;28;102612;-49
2021/07/17 07:11:53;;;;;;;13.35;11.18;;;;;;;24.15;71.31;100609.94;4945759;28;104277;-50
2021/07/17 07:14:20;;;;;;;12.18;10.95;;;;;;;24.16;71.48;100604.00;4946528;28;102032;-50
2021/07/17 07:16:47;;;;;;;12.10;10.63;;;;;;;24.17;71.34;100608.41;4936237;28;102869;-50
2021/07/17 07:19:15;;;;;;;11.85;10.63;;;;;;;24.18;71.33;100614.75;4940182;28;103276;-50
2021/07/17 07:21:41;;;;;;;12.80;10.63;;;;;;;24.17;71.41;100605.63;4938394;28;104613;-50
2021/07/17 07:24:09;;;;;;;13.60;11.15;;;;;;;24.19;71.47;100611.59;4945559;28;102461;-50
2021/07/17 07:26:36;;;;;;;13.40;11.77;;;;;;;24.21;71.39;100614.81;4946475;28;102718;-50
2021/07/17 07:29:04;;;;;;;14.30;11.95;;;;;;;24.24;71.33;100626.41;4945967;28;102707;-50
2021/07/17 07:31:30;;;;;;;12.98;11.52;;;;;;;24.24;71.17;100618.06;4938503;28;104086;-50
2021/07/17 07:33:57;;;;;;;13.88;11.73;;;;;;;24.26;71.16;100621.25;4948542;28;102558;-49
2021/07/17 07:36:35;;;;;;;13.40;11.97;;;;;;;24.26;71.41;100621.25;4931192;28;102172;-50
2021/07/17 07:39:02;;;;;;;13.30;11.95;;;;;;;24.26;71.27;100626.81;4946324;28;102341;-50
2021/07/17 07:41:30;;;;;;;13.75;12.35;;;;;;;24.27;71.11;100622.88;4945117;28;104322;-50
2021/07/17 07:43:56;;;;;;;13.50;12.05;;;;;;;24.27;71.43;100617.31;4945680;28;102349;-49
2021/07/17 07:46:23;;;;;;;13.65;12.13;;;;;;;24.28;71.27;100621.72;4948135;28;102583;-49
2021/07/17 07:48:50;;;;;;;14.80;13.00;;;;;;;24.30;71.01;100616.56;4946229;28;102160;-50
2021/07/17 07:51:18;;;;;;;13.68;12.27;;;;;;;24.31;71.05;100626.56;4947038;28;103907;-50
2021/07/17 07:53:44;;;;;;;13.35;12.10;;;;;;;24.32;71.40;100622.59;4946650;28;102146;-50
2021/07/17 07:56:11;;;;;;;15.57;13.50;;;;;;;24.31;71.04;100619.00;4946918;28;102705;-50
2021/07/17 07:58:39;;;;;;;13.95;12.60;;;;;;;24.34;71.24;100617.44;4954197;28;102322;-50
2021/07/17 08:01:06;;;;;;;14.15;12.90;;;;;;;24.34;71.37;100617.44;4951815;28;103908;-50
2021/07/17 08:03:33;;;;;;;13.65;12.43;;;;;;;24.34;71.34;100623.00;4948708;28;102460;-50
2021/07/17 08:05:59;;;;;;;15.60;14.10;;;;;;;24.34;71.33;100617.44;4938765;28;102617;-51
2021/07/17 08:08:26;;;;;;;16.35;13.82;;;;;;;24.34;71.09;100612.72;4947365;28;102373;-50
2021/07/17 08:10:53;;;;;;;16.00;14.45;;;;;;;24.35;71.00;100614.31;4947185;28;104023;-50
2021/07/17 08:13:19;;;;;;;15.23;13.82;;;;;;;24.36;71.00;100612.34;4943448;28;102832;-50
2021/07/17 08:15:50;;;;;;;16.75;14.15;;;;;;;24.38;71.05;100618.34;4944116;28;102529;-49
2021/07/17 08:18:16;;;;;;;15.98;14.57;;;;;;;24.36;71.25;100610.34;4923693;28;102660;-50
2021/07/17 08:20:43;;;;;;;16.33;14.75;;;;;;;24.37;71.14;100611.16;4940619;28;103976;-50
2021/07/17 08:23:10;;;;;;;14.93;13.40;;;;;;;24.37;71.00;100608.38;4945738;28;102034;-50
2021/07/17 08:25:37;;;;;;;15.27;13.80;;;;;;;24.38;71.16;100601.66;4940701;28;102410;-50
2021/07/17 08:28:04;;;;;;;16.17;14.68;;;;;;;24.37;70.92;100606.38;4941547;28;102352;-50
2021/07/17 08:30:33;;;;;;;16.92;14.63;;;;;;;24.38;71.23;100596.09;4928945;28;104120;-50
2021/07/17 08:33:01;;;;;;;;;;;;;;;24.38;71.15;100608.03;4943693;28;102574;-50
2021/07/17 08:35:28;;;;;;;14.43;13.02;;;;;;;24.38;70.88;100610.00;4937186;28;102625;-50
2021/07/17 08:37:55;;;;;;;16.08;14.57;;;;;;;24.36;70.99;100610.34;4946326;28;102677;-50
2021/07/17 08:40:22;;;;;;;16.20;14.60;;;;;;;24.38;70.96;100604.44;4943846;28;104190;-50
2021/07/17 08:42:51;;;;;;;16.30;14.60;;;;;;;24.38;71.25;100602.47;4936066;28;102556;-50
2021/07/17 08:45:18;;;;;;;15.57;14.18;;;;;;;24.39;71.08;100597.69;4945469;28;103120;-50
2021/07/17 08:47:47;;;;;;;16.60;14.93;;;;;;;24.39;71.04;100592.13;4945738;28;102598;-50
2021/07/17 08:50:18;;;;;;;15.15;13.85;;;;;;;24.38;70.93;100596.91;4954576;28;103936;-51
2021/07/17 08:52:45;;;;;;;15.73;14.23;;;;;;;24.38;71.08;100601.66;4936135;28;104190;-50
2021/07/17 08:55:13;;;;;;;15.40;14.00;;;;;;;24.39;71.22;100594.91;4941486;28;102833;-50
2021/07/17 08:57:43;;;;;;;17.93;16.33;;;;;;;24.40;71.07;100599.31;4936672;28;104946;-49
2021/07/17 09:00:13;;;;;;;17.98;16.33;;;;;;;24.40;71.25;100596.53;4943474;28;104034;-50
2021/07/17 09:02:40;;;;;;;15.90;14.43;;;;;;;24.40;71.13;100600.13;4952298;28;102046;-50
2021/07/17 09:05:10;;;;;;;16.08;14.48;;;;;;;24.41;71.25;100598.94;4948908;28;102597;-50
2021/07/17 09:07:38;;;;;;;18.05;16.45;;;;;;;24.40;70.97;100593.75;4944885;28;103777;-50
2021/07/17 09:10:27;;;;;;;18.60;16.83;;;;;;;24.39;71.26;100594.91;4937392;28;103235;-50
2021/07/17 09:13:12;;;;;;;16.08;14.60;;;;;;;24.41;71.15;100589.81;4940748;28;103301;-50
2021/07/17 09:15:42;;;;;;;18.38;15.85;;;;;;;24.43;71.21;100590.25;4948590;28;102786;-50
2021/07/17 09:18:10;;;;;;;17.33;15.82;;;;;;;24.42;70.95;100588.66;4933006;28;103719;-50
2021/07/17 09:20:37;;;;;;;15.88;14.38;;;;;;;24.43;71.10;100587.47;4949154;28;103919;-50
2021/07/17 09:23:06;;;;;;;18.48;16.77;;;;;;;24.43;71.01;100576.34;4948486;28;102755;-50
2021/07/17 09:25:36;;;;;;;18.77;16.90;;;;;;;24.43;71.06;100579.13;4944989;28;102065;-50
2021/07/17 09:28:17;;;;;;;18.20;16.40;;;;;;;24.42;71.11;100577.53;4951289;28;102512;-50
2021/07/17 09:30:45;;;;;;;19.27;17.50;;;;;;;24.42;71.03;100577.53;4946535;28;103952;-50
2021/07/17 09:33:13;;;;;;;19.40;17.50;;;;;;;24.42;70.94;100580.31;4952856;28;102665;-51
2021/07/17 09:35:41;;;;;;;18.67;16.87;;;;;;;24.43;71.33;100576.34;4948782;28;102616;-50
2021/07/17 09:38:10;;;;;;;18.70;17.03;;;;;;;24.42;71.20;100575.53;4947267;28;102763;-50
2021/07/17 09:40:43;;;;;;;;;;;;;;;24.43;71.15;100576.34;4930639;28;104178;-50
2021/07/17 09:43:10;;;;;;;19.75;17.77;;;;;;;24.44;71.27;100577.94;4952283;28;102176;-50
2021/07/17 09:45:38;;;;;;;19.70;17.98;;;;;;;24.43;70.98;100571.56;4951749;28;102149;-52
2021/07/17 09:48:26;;;;;;;19.17;17.37;;;;;;;24.41;71.01;100564.78;4947887;28;102196;-51
2021/07/17 09:50:54;;;;;;;18.48;16.55;;;;;;;24.42;71.14;100574.75;4940091;28;104780;-50
2021/07/17 09:53:40;;;;;;;20.63;18.70;;;;;;;24.40;71.24;100568.72;4946880;28;102872;-49
2021/07/17 09:56:08;;;;;;;21.02;19.02;;;;;;;24.38;71.04;100563.53;4945049;28;102142;-50
2021/07/17 09:58:37;;;;;;;19.98;17.77;;;;;;;24.38;70.98;100560.75;4946646;28;102312;-50
2021/07/17 10:01:19;;;;;;;20.65;18.67;;;;;;;24.37;71.10;100561.88;4944191;28;103873;-51
2021/07/17 10:03:47;;;;;;;17.85;16.15;;;;;;;24.40;71.14;100557.59;4945146;28;103242;-50
2021/07/17 10:06:57;;;;;;;20.70;18.70;;;;;;;24.39;71.07;100553.19;4947469;28;102574;-50
2021/07/17 10:09:33;;;;;;;20.50;18.60;;;;;;;24.38;71.17;100552.41;4949888;28;102392;-54
2021/07/17 10:12:04;;;;;;;20.08;18.30;;;;;;;24.37;71.19;100555.53;4933154;28;105098;-50
2021/07/17 10:14:36;;;;;;;19.85;18.17;;;;;;;24.38;71.06;100551.59;4938919;28;102557;-50
2021/07/17 10:17:07;;;;;;;21.13;19.33;;;;;;;24.37;71.00;100549.97;4940657;28;102151;-50
2021/07/17 10:19:34;;;;;;;20.38;18.52;;;;;;;24.38;71.06;100546.03;4949291;28;102681;-50
2021/07/17 10:22:01;;;;;;;20.10;17.92;;;;;;;24.38;70.95;100546.84;4947576;28;102549;-50
2021/07/17 10:24:28;;;;;;;20.45;18.48;;;;;;;24.36;71.11;100538.03;4940429;28;102691;-50
2021/07/17 10:26:57;;;;;;;20.75;18.95;;;;;;;24.36;71.29;100545.59;4949670;28;102174;-50
2021/07/17 10:29:26;;;;;;;21.00;19.00;;;;;;;24.35;70.99;100541.19;4951393;28;102958;-50
2021/07/17 10:31:55;;;;;;;20.35;18.45;;;;;;;24.35;71.07;100547.56;4956728;28;103810;-50
2021/07/17 10:34:22;;;;;;;20.88;19.08;;;;;;;24.34;71.29;100545.13;4949322;28;102392;-50
2021/07/17 10:36:55;;;;;;;18.80;17.10;;;;;;;24.35;70.91;100541.19;4946894;28;102144;-50
2021/07/17 10:39:26;;;;;;;19.42;17.83;;;;;;;24.35;71.10;100536.44;4946212;28;102410;-50
2021/07/17 10:41:54;;;;;;;19.33;17.55;;;;;;;24.35;71.23;100541.19;4925373;28;103701;-50
2021/07/17 10:44:46;;;;;;;21.00;19.20;;;;;;;24.34;71.24;100540.41;4941885;28;102274;-50
2021/07/17 10:47:13;;;;;;;20.88;19.08;;;;;;;24.36;71.08;100538.03;4943466;28;102276;-51
2021/07/17 10:49:42;;;;;;;20.00;18.15;;;;;;;24.35;71.10;100536.44;4950659;28;102612;-50
2021/07/17 10:52:08;;;;;;;;;;;;;;;24.36;71.16;100534.47;4943568;28;103905;-50
2021/07/17 10:54:36;;;;;;;21.65;19.55;;;;;;;24.33;70.90;100529.63;4925353;28;102865;-50
2021/07/17 10:57:04;;;;;;;20.15;18.35;;;;;;;24.34;71.31;100517.31;4947442;28;102473;-50
2021/07/17 10:59:46;;;;;;;19.50;17.70;;;;;;;24.34;71.21;100523.72;4945608;28;102127;-50
2021/07/17 11:02:15;;;;;;;21.02;19.10;;;;;;;24.34;71.28;100528.44;4944096;28;102927;-50
2021/07/17 11:04:48;;;;;;;21.50;19.52;;;;;;;24.31;71.15;100518.88;4929413;28;102554;-50
2021/07/17 11:07:40;;;;;;;21.90;19.95;;;;;;;24.30;71.36;100510.91;4945212;28;102451;-50
2021/07/17 11:10:15;;;;;;;21.90;20.00;;;;;;;24.29;71.32;100520.41;4938303;28;102761;-50
2021/07/17 11:12:54;;;;;;;22.23;20.27;;;;;;;24.28;71.23;100516.84;4945195;28;104139;-50
2021/07/17 11:15:39;;;;;;;21.55;19.55;;;;;;;24.30;71.14;100514.47;4952443;28;102402;-50
2021/07/17 11:18:26;;;;;;;22.33;20.25;;;;;;;24.30;71.18;100513.69;4939422;28;102539;-50